createdAt,value
2022-12-03T00:00:40.176Z,102671.41
2022-12-03T00:03:06.895Z,102675.19
2022-12-03T00:05:33.566Z,102672.28
2022-12-03T00:08:00.294Z,102667.13
2022-12-03T00:10:27.013Z,102667.13
2022-12-03T00:12:53.559Z,102659.91
2022-12-03T00:15:20.078Z,102650.97
2022-12-03T00:17:46.609Z,102665.69
2022-12-03T00:20:23.794Z,102651.28
2022-12-03T00:22:50.824Z,102645.81
2022-12-03T00:25:17.883Z,102645.81
2022-12-03T00:27:44.549Z,102640.66
2022-12-03T00:30:13.340Z,102646.66
2022-12-03T00:32:41.726Z,102635.16
2022-12-03T00:35:09.016Z,102644.38
2022-12-03T00:37:35.607Z,102638.22
2022-12-03T00:40:04.478Z,102638.91
2022-12-03T00:42:31.559Z,102637.19
2022-12-03T00:44:58.190Z,102628.25
2022-12-03T00:47:25.016Z,102637.19
2022-12-03T00:49:51.589Z,102640.41
2022-12-03T00:52:18.174Z,102633.88
2022-12-03T00:54:45.470Z,102627.88
2022-12-03T00:57:12.208Z,102631.16
2022-12-03T00:59:40.966Z,102645.00
2022-12-03T01:02:07.604Z,102630.63
2022-12-03T01:04:34.374Z,102627.47
2022-12-03T01:07:01.141Z,102631.91
2022-12-03T01:09:27.687Z,102623.53
2022-12-03T01:11:54.287Z,102630.06
2022-12-03T01:14:20.895Z,102621.84
2022-12-03T01:16:48.103Z,102618.84
2022-12-03T01:19:16.275Z,102615.94
2022-12-03T01:21:44.435Z,102616.50
2022-12-03T01:24:11.434Z,102617.53
2022-12-03T01:26:38.939Z,102626.06
2022-12-03T01:29:06.150Z,102614.22
2022-12-03T01:31:51.576Z,102616.25
2022-12-03T01:34:18.200Z,102610.78
2022-12-03T01:36:44.811Z,102608.03
2022-12-03T01:39:11.686Z,102610.25
2022-12-03T01:41:38.781Z,102605.59
2022-12-03T01:44:15.770Z,102597.38
2022-12-03T01:46:42.929Z,102585.75
2022-12-03T01:49:15.293Z,102581.41
2022-12-03T01:51:41.838Z,102581.41
2022-12-03T01:54:16.466Z,102591.22
2022-12-03T01:56:43.327Z,102579.53
2022-12-03T01:59:15.680Z,102585.19
2022-12-03T02:01:42.648Z,102580.72
2022-12-03T02:04:13.038Z,102580.00
2022-12-03T02:06:40.229Z,102579.84
2022-12-03T02:09:08.720Z,102576.25
2022-12-03T02:11:38.817Z,102576.25
2022-12-03T02:14:18.071Z,102583.78
2022-12-03T02:16:45.050Z,102580.31
2022-12-03T02:19:30.532Z,102572.81
2022-12-03T02:22:03.969Z,102570.41
2022-12-03T02:24:46.684Z,102568.66
2022-12-03T02:27:13.293Z,102571.69
2022-12-03T02:29:39.921Z,102569.84
2022-12-03T02:32:06.530Z,102574.44
2022-12-03T02:34:44.908Z,102572.00
2022-12-03T02:37:33.547Z,102570.00
2022-12-03T02:40:04.014Z,102572.00
2022-12-03T02:42:37.137Z,102564.09
2022-12-03T02:45:09.172Z,102563.09
2022-12-03T02:47:41.409Z,102563.41
2022-12-03T02:50:09.514Z,102562.53
2022-12-03T02:52:36.452Z,102559.66
2022-12-03T02:55:05.526Z,102570.59
2022-12-03T02:57:33.404Z,102556.19
2022-12-03T03:00:00.202Z,102565.44
2022-12-03T03:02:28.282Z,102553.63
2022-12-03T03:04:56.167Z,102516.91
2022-12-03T03:07:23.052Z,102549.31
2022-12-03T03:09:49.825Z,102543.84
2022-12-03T03:12:16.621Z,102541.25
2022-12-03T03:14:43.222Z,102544.88
2022-12-03T03:17:09.925Z,102545.84
2022-12-03T03:19:36.516Z,102543.13
2022-12-03T03:22:03.388Z,102544.16
2022-12-03T03:24:29.979Z,102547.75
2022-12-03T03:26:56.574Z,102540.72
2022-12-03T03:29:23.364Z,102520.88
2022-12-03T03:31:50.146Z,102549.94
2022-12-03T03:34:17.603Z,102541.03
2022-12-03T03:36:45.242Z,102536.25
2022-12-03T03:39:12.266Z,102530.91
2022-12-03T03:41:39.014Z,102525.44
2022-12-03T03:44:07.252Z,102530.22
2022-12-03T03:46:35.613Z,102520.28
2022-12-03T03:49:03.990Z,102522.84
2022-12-03T03:51:32.671Z,102514.81
2022-12-03T03:53:59.823Z,102499.75
2022-12-03T03:56:27.106Z,102514.94
2022-12-03T03:58:55.345Z,102523.16
2022-12-03T04:01:23.929Z,102517.53
2022-12-03T04:03:50.795Z,102516.84
2022-12-03T04:06:17.317Z,102515.97
2022-12-03T04:08:43.988Z,102513.41
2022-12-03T04:11:29.125Z,102516.28
2022-12-03T04:13:55.733Z,102510.81
2022-12-03T04:16:22.362Z,102514.56
2022-12-03T04:18:48.959Z,102506.22
2022-12-03T04:21:42.189Z,102501.88
2022-12-03T04:24:10.372Z,102509.09
2022-12-03T04:26:55.515Z,102501.19
2022-12-03T04:29:22.371Z,102507.34
2022-12-03T04:32:07.439Z,102503.94
2022-12-03T04:34:52.941Z,102497.44
2022-12-03T04:37:19.780Z,102490.25
2022-12-03T04:39:46.643Z,102493.00
2022-12-03T04:42:13.192Z,102495.72
2022-12-03T04:44:39.834Z,102491.41
2022-12-03T04:47:06.260Z,102490.72
2022-12-03T04:49:33.853Z,102498.78
2022-12-03T04:52:00.673Z,102491.56
2022-12-03T04:54:28.412Z,102490.88
2022-12-03T04:56:54.975Z,102493.59
2022-12-03T04:59:21.541Z,102489.13
2022-12-03T05:01:48.596Z,102486.38
2022-12-03T05:04:16.100Z,102488.44
2022-12-03T05:06:42.938Z,102487.41
2022-12-03T05:09:10.020Z,102469.59
2022-12-03T05:11:36.754Z,102481.22
2022-12-03T05:14:03.351Z,102486.69
2022-12-03T05:16:29.965Z,102474.03
2022-12-03T05:18:56.823Z,102482.25
2022-12-03T05:21:23.653Z,102474.03
2022-12-03T05:23:50.215Z,102474.91
2022-12-03T05:26:17.071Z,102466.84
2022-12-03T05:28:43.728Z,102469.59
2022-12-03T05:31:10.506Z,102464.78
2022-12-03T05:33:40.996Z,102467.38
2022-12-03T05:36:10.872Z,102464.50
2022-12-03T05:38:37.511Z,102468.25
2022-12-03T05:41:24.344Z,102463.66
2022-12-03T05:43:51.042Z,102467.38
2022-12-03T05:46:17.826Z,102464.50
2022-12-03T05:48:44.757Z,102465.19
2022-12-03T05:51:11.367Z,102465.19
2022-12-03T05:53:37.877Z,102461.28
2022-12-03T05:56:04.656Z,102469.34
2022-12-03T05:58:31.184Z,102457.25
2022-12-03T06:00:57.645Z,102471.78
2022-12-03T06:03:24.265Z,102457.25
2022-12-03T06:05:50.967Z,102462.56
2022-12-03T06:08:17.554Z,102457.09
2022-12-03T06:10:44.197Z,102450.59
2022-12-03T06:13:10.696Z,102460.34
2022-12-03T06:15:42.088Z,102449.41
2022-12-03T06:18:10.345Z,102451.97
2022-12-03T06:20:36.908Z,102444.47
2022-12-03T06:23:03.449Z,102444.47
2022-12-03T06:25:30.011Z,102451.50
2022-12-03T06:27:56.538Z,102443.13
2022-12-03T06:30:23.079Z,102449.50
2022-12-03T06:32:49.622Z,102445.56
2022-12-03T06:35:16.181Z,102440.09
2022-12-03T06:37:42.665Z,102432.59
2022-12-03T06:40:09.763Z,102431.03
2022-12-03T06:42:36.288Z,102432.59
2022-12-03T06:45:03.386Z,102428.81
2022-12-03T06:47:29.987Z,102429.69
2022-12-03T06:49:56.518Z,102422.31
2022-12-03T06:52:23.071Z,102431.25
2022-12-03T06:54:49.619Z,102437.44
2022-12-03T06:57:16.317Z,102437.44
2022-12-03T06:59:42.813Z,102440.84
2022-12-03T07:02:09.998Z,102437.94
2022-12-03T07:04:36.684Z,102433.34
2022-12-03T07:07:03.219Z,102437.94
2022-12-03T07:09:29.711Z,102437.25
2022-12-03T07:11:57.256Z,102437.44
2022-12-03T07:14:23.875Z,102443.81
2022-12-03T07:16:50.430Z,102444.75
2022-12-03T07:19:17.080Z,102438.81
2022-12-03T07:21:43.787Z,102437.81
2022-12-03T07:24:10.329Z,102431.06
2022-12-03T07:26:37.044Z,102443.06
2022-12-03T07:29:04.041Z,102453.16
2022-12-03T07:31:30.706Z,102446.53
2022-12-03T07:33:57.288Z,102447.03
2022-12-03T07:36:23.821Z,102444.84
2022-12-03T07:38:50.340Z,102443.81
2022-12-03T07:41:17.335Z,102450.56
2022-12-03T07:43:45.198Z,102454.69
2022-12-03T07:46:12.063Z,102451.78
2022-12-03T07:48:38.660Z,102448.19
2022-12-03T07:51:05.261Z,102453.00
2022-12-03T07:53:31.780Z,102449.22
2022-12-03T07:55:58.369Z,102436.28
2022-12-03T07:58:24.949Z,102437.69
2022-12-03T08:00:51.678Z,102435.50
2022-12-03T08:03:18.243Z,102432.94
2022-12-03T08:05:45.989Z,102435.34
2022-12-03T08:08:12.626Z,102427.50
2022-12-03T08:10:39.178Z,102411.34
2022-12-03T08:13:12.790Z,102431.31
2022-12-03T08:15:39.813Z,102433.88
2022-12-03T08:18:14.068Z,102424.03
2022-12-03T08:20:42.936Z,102428.81
2022-12-03T08:23:15.836Z,102427.34
2022-12-03T08:25:43.561Z,102423.22
2022-12-03T08:28:19.087Z,102421.34
2022-12-03T08:31:19.508Z,102434.28
2022-12-03T08:33:53.156Z,102427.34
2022-12-03T08:36:30.435Z,102423.38
2022-12-03T08:39:33.196Z,102429.41
2022-12-03T08:42:42.272Z,102428.38
2022-12-03T08:45:40.166Z,102427.03
2022-12-03T08:48:25.813Z,102428.50
2022-12-03T08:51:04.844Z,102426.84
2022-12-03T08:53:47.523Z,102422.50
2022-12-03T08:56:19.812Z,102419.03
2022-12-03T08:58:53.958Z,102427.97
2022-12-03T09:01:56.480Z,102419.75
2022-12-03T09:04:45.070Z,102425.81
2022-12-03T09:07:11.676Z,102425.03
2022-12-03T09:09:38.312Z,102423.53
2022-12-03T09:12:05.225Z,102422.81
2022-12-03T09:14:31.796Z,102413.81
2022-12-03T09:16:58.441Z,102420.66
2022-12-03T09:19:26.852Z,102419.41
2022-12-03T09:21:54.688Z,102409.81
2022-12-03T09:24:21.315Z,102408.06
2022-12-03T09:26:47.941Z,102407.56
2022-12-03T09:29:14.815Z,102406.34
2022-12-03T09:31:41.801Z,102412.38
2022-12-03T09:34:10.605Z,102405.69
2022-12-03T09:36:37.130Z,102412.91
2022-12-03T09:39:03.832Z,102407.44
2022-12-03T09:41:30.589Z,102410.84
2022-12-03T09:44:05.558Z,102409.13
2022-12-03T09:46:35.495Z,102408.47
2022-12-03T09:49:03.668Z,102412.25
2022-12-03T09:51:36.657Z,102408.47
2022-12-03T09:54:05.753Z,102404.34
2022-12-03T09:56:37.606Z,102404.31
2022-12-03T09:59:13.609Z,102413.50
2022-12-03T10:01:40.317Z,102409.34
2022-12-03T10:04:07.395Z,102404.53
2022-12-03T10:06:34.015Z,102398.69
2022-12-03T10:09:00.865Z,102411.41
2022-12-03T10:11:30.140Z,102402.69
2022-12-03T10:13:58.523Z,102405.34
2022-12-03T10:16:26.503Z,102403.94
2022-12-03T10:18:55.701Z,102395.69
2022-12-03T10:21:39.030Z,102405.28
2022-12-03T10:24:20.589Z,102404.19
2022-12-03T10:26:51.172Z,102396.28
2022-12-03T10:29:32.909Z,102395.78
2022-12-03T10:32:03.201Z,102388.72
2022-12-03T10:34:32.783Z,102389.94
2022-12-03T10:37:09.451Z,102395.41
2022-12-03T10:40:09.148Z,102392.84
2022-12-03T10:42:38.113Z,102389.41
2022-12-03T10:45:18.412Z,102388.72
2022-12-03T10:48:16.503Z,102385.97
2022-12-03T10:50:48.761Z,102388.00
2022-12-03T10:53:16.148Z,102376.19
2022-12-03T10:55:44.974Z,102375.34
2022-12-03T10:58:26.446Z,102371.56
2022-12-03T11:00:55.424Z,102377.19
2022-12-03T11:03:27.664Z,102374.47
2022-12-03T11:05:56.164Z,102382.84
2022-12-03T11:08:25.695Z,102374.63
2022-12-03T11:11:20.300Z,102372.75
2022-12-03T11:13:57.789Z,102366.69
2022-12-03T11:16:39.789Z,102363.94
2022-12-03T11:19:19.020Z,102359.50
2022-12-03T11:22:04.799Z,102361.22
2022-12-03T11:24:36.374Z,102355.72
2022-12-03T11:27:02.922Z,102348.38
2022-12-03T11:29:44.922Z,102345.63
2022-12-03T11:32:11.578Z,102344.91
2022-12-03T11:34:41.384Z,102335.84
2022-12-03T11:37:11.143Z,102344.75
2022-12-03T11:39:49.857Z,102335.56
2022-12-03T11:42:28.582Z,102329.19
2022-12-03T11:45:04.476Z,102333.78
2022-12-03T11:47:38.608Z,102330.22
2022-12-03T11:50:23.540Z,102323.16
2022-12-03T11:52:55.695Z,102331.72
2022-12-03T11:55:37.909Z,102320.91
2022-12-03T11:58:13.337Z,102326.38
2022-12-03T12:00:48.837Z,102318.31
2022-12-03T12:03:24.991Z,102320.41
2022-12-03T12:06:07.699Z,102316.94
2022-12-03T12:08:36.627Z,102308.03
2022-12-03T12:11:03.696Z,102304.13
2022-12-03T12:13:36.024Z,102304.47
2022-12-03T12:16:05.314Z,102300.72
2022-12-03T12:18:35.029Z,102302.44
2022-12-03T12:21:42.455Z,102299.16
2022-12-03T12:24:28.020Z,102302.94
2022-12-03T12:26:55.341Z,102283.00
2022-12-03T12:29:22.085Z,102290.72
2022-12-03T12:31:53.739Z,102293.16
2022-12-03T12:34:20.862Z,102281.13
2022-12-03T12:36:47.474Z,102282.16
2022-12-03T12:39:16.504Z,102274.63
2022-12-03T12:41:48.983Z,102279.25
2022-12-03T12:44:15.446Z,102276.84
2022-12-03T12:46:47.999Z,102278.06
2022-12-03T12:49:15.691Z,102277.38
2022-12-03T12:51:46.924Z,102275.31
2022-12-03T12:54:15.957Z,102277.03
2022-12-03T12:56:50.046Z,102275.31
2022-12-03T12:59:20.268Z,102281.16
2022-12-03T13:01:49.626Z,102274.63
2022-12-03T13:04:22.586Z,102275.31
2022-12-03T13:06:52.776Z,102283.88
2022-12-03T13:09:24.841Z,102272.72
2022-12-03T13:12:03.998Z,102270.31
2022-12-03T13:14:32.948Z,102267.22
2022-12-03T13:17:01.831Z,102251.94
2022-12-03T13:19:46.094Z,102258.13
2022-12-03T13:22:22.245Z,102259.16
2022-12-03T13:24:51.038Z,102251.56
2022-12-03T13:27:17.447Z,102256.75
2022-12-03T13:30:01.715Z,102248.00
2022-12-03T13:32:32.420Z,102251.25
2022-12-03T13:35:27.812Z,102253.00
2022-12-03T13:37:54.354Z,102242.84
2022-12-03T13:40:27.238Z,102236.84
2022-12-03T13:42:54.909Z,102241.66
2022-12-03T13:45:30.929Z,102240.63
2022-12-03T13:48:01.772Z,102233.09
2022-12-03T13:50:35.531Z,102232.44
2022-12-03T13:53:26.989Z,102228.47
2022-12-03T13:56:16.637Z,102231.03
2022-12-03T13:58:43.230Z,102235.00
2022-12-03T14:01:09.805Z,102235.16
2022-12-03T14:03:36.382Z,102226.22
2022-12-03T14:06:03.083Z,102222.78
2022-12-03T14:08:29.687Z,102225.19
2022-12-03T14:11:00.510Z,102219.38
2022-12-03T14:13:27.689Z,102221.44
2022-12-03T14:15:54.409Z,102214.25
2022-12-03T14:18:21.012Z,102218.00
2022-12-03T14:20:48.386Z,102213.19
2022-12-03T14:23:15.736Z,102227.97
2022-12-03T14:25:43.927Z,102226.06
2022-12-03T14:28:10.830Z,102216.97
2022-12-03T14:30:37.668Z,102216.63
2022-12-03T14:33:04.822Z,102214.91
2022-12-03T14:35:31.336Z,102212.84
2022-12-03T14:37:57.879Z,102212.50
2022-12-03T14:40:24.526Z,102212.69
2022-12-03T14:42:51.110Z,102211.63
2022-12-03T14:45:18.082Z,102210.47
2022-12-03T14:47:44.685Z,102204.63
2022-12-03T14:50:14.333Z,102204.28
2022-12-03T14:52:41.491Z,102203.25
2022-12-03T14:55:08.515Z,102201.53
2022-12-03T14:57:36.777Z,102200.00
2022-12-03T15:00:05.607Z,102202.75
2022-12-03T15:02:32.597Z,102194.69
2022-12-03T15:04:59.150Z,102201.88
2022-12-03T15:07:25.796Z,102198.47
2022-12-03T15:09:52.643Z,102186.63
2022-12-03T15:12:19.389Z,102192.28
2022-12-03T15:14:45.942Z,102184.03
2022-12-03T15:17:12.536Z,102190.56
2022-12-03T15:19:39.127Z,102191.59
2022-12-03T15:22:05.698Z,102181.47
2022-12-03T15:24:32.518Z,102177.38
2022-12-03T15:26:59.085Z,102186.09
2022-12-03T15:29:25.644Z,102183.88
2022-12-03T15:31:52.172Z,102187.13
2022-12-03T15:34:22.594Z,102185.09
2022-12-03T15:36:49.767Z,102190.25
2022-12-03T15:39:16.305Z,102187.84
2022-12-03T15:41:42.811Z,102187.66
2022-12-03T15:44:09.361Z,102188.69
2022-12-03T15:46:36.085Z,102186.13
2022-12-03T15:49:02.699Z,102182.34
2022-12-03T15:51:29.299Z,102185.78
2022-12-03T15:53:55.808Z,102190.41
2022-12-03T15:56:22.480Z,102184.03
2022-12-03T15:58:49.094Z,102184.91
2022-12-03T16:01:18.220Z,102184.56
2022-12-03T16:03:45.416Z,102185.41
2022-12-03T16:06:12.869Z,102187.47
2022-12-03T16:08:39.471Z,102191.41
2022-12-03T16:11:06.169Z,102197.41
2022-12-03T16:13:32.763Z,102190.75
2022-12-03T16:15:59.864Z,102198.97
2022-12-03T16:18:26.560Z,102190.56
2022-12-03T16:20:53.172Z,102192.28
2022-12-03T16:23:19.782Z,102191.25
2022-12-03T16:25:46.444Z,102189.88
2022-12-03T16:28:12.981Z,102192.97
2022-12-03T16:30:39.881Z,102188.50
2022-12-03T16:33:06.713Z,102190.72
2022-12-03T16:35:33.286Z,102195.00
2022-12-03T16:37:59.810Z,102195.00
2022-12-03T16:40:26.626Z,102188.66
2022-12-03T16:42:53.091Z,102198.25
2022-12-03T16:45:33.308Z,102198.78
2022-12-03T16:48:01.302Z,102202.56
2022-12-03T16:50:30.310Z,102189.84
2022-12-03T16:52:57.705Z,102198.25
2022-12-03T16:55:24.654Z,102203.94
2022-12-03T16:57:51.127Z,102206.00
2022-12-03T17:00:17.926Z,102202.41
2022-12-03T17:02:44.534Z,102207.88
2022-12-03T17:05:11.234Z,102201.53
2022-12-03T17:07:37.845Z,102198.78
2022-12-03T17:10:04.987Z,102197.06
2022-12-03T17:13:00.761Z,102190.88
2022-12-03T17:15:18.876Z,102184.72
2022-12-03T17:17:45.736Z,102187.13
2022-12-03T17:20:14.607Z,102184.56
2022-12-03T17:22:41.656Z,102184.22
2022-12-03T17:25:08.817Z,102187.66
2022-12-03T17:27:37.051Z,102188.00
2022-12-03T17:30:07.827Z,102186.09
2022-12-03T17:32:34.441Z,102188.84
2022-12-03T17:35:19.225Z,102178.88
2022-12-03T17:37:46.087Z,102177.69
2022-12-03T17:40:14.279Z,102177.81
2022-12-03T17:42:40.841Z,102181.44
2022-12-03T17:45:07.994Z,102174.59
2022-12-03T17:47:34.624Z,102181.59
2022-12-03T17:50:01.159Z,102179.22
2022-12-03T17:52:27.776Z,102171.63
2022-12-03T17:55:14.006Z,102175.25
2022-12-03T17:57:40.826Z,102179.88
2022-12-03T18:00:07.962Z,102178.88
2022-12-03T18:02:41.606Z,102176.81
2022-12-03T18:05:08.855Z,102182.31
2022-12-03T18:07:35.499Z,102174.09
2022-12-03T18:10:02.280Z,102174.44
2022-12-03T18:12:28.826Z,102174.44
2022-12-03T18:14:55.408Z,102171.00
2022-12-03T18:17:23.496Z,102172.03
2022-12-03T18:19:50.255Z,102173.09
2022-12-03T18:22:17.317Z,102178.22
2022-12-03T18:24:46.249Z,102178.91
2022-12-03T18:27:14.968Z,102172.03
2022-12-03T18:29:41.465Z,102179.41
2022-12-03T18:32:27.178Z,102169.28
2022-12-03T18:34:55.738Z,102170.31
2022-12-03T18:37:24.119Z,102178.91
2022-12-03T18:39:50.748Z,102173.41
2022-12-03T18:42:19.568Z,102159.88
2022-12-03T18:44:49.781Z,102159.88
2022-12-03T18:47:22.399Z,102165.34
2022-12-03T18:49:49.311Z,102161.06
2022-12-03T18:52:19.185Z,102145.97
2022-12-03T18:54:46.379Z,102150.25
2022-12-03T18:57:13.236Z,102149.91
2022-12-03T18:59:39.916Z,102151.44
2022-12-03T19:02:08.120Z,102162.44
2022-12-03T19:04:34.788Z,102149.41
2022-12-03T19:07:01.387Z,102147.31
2022-12-03T19:09:28.001Z,102153.31
2022-12-03T19:11:54.536Z,102151.28
2022-12-03T19:14:21.099Z,102134.88
2022-12-03T19:16:49.999Z,102140.50
2022-12-03T19:19:17.366Z,102142.38
2022-12-03T19:21:43.940Z,102138.44
2022-12-03T19:24:25.894Z,102138.63
2022-12-03T19:26:54.755Z,102147.88
2022-12-03T19:29:23.101Z,102150.44
2022-12-03T19:31:51.403Z,102152.16
2022-12-03T19:34:18.452Z,102136.38
2022-12-03T19:36:45.152Z,102145.31
2022-12-03T19:39:11.793Z,102151.13
2022-12-03T19:41:39.321Z,102146.66
2022-12-03T19:44:10.755Z,102143.03
2022-12-03T19:46:37.750Z,102147.88
2022-12-03T19:49:04.866Z,102146.28
2022-12-03T19:51:35.104Z,102143.59
2022-12-03T19:54:07.116Z,102161.59
2022-12-03T19:56:34.648Z,102145.31
2022-12-03T19:59:01.664Z,102146.34
2022-12-03T20:01:31.173Z,102140.84
2022-12-03T20:04:00.258Z,102145.66
2022-12-03T20:06:29.254Z,102137.25
2022-12-03T20:09:00.291Z,102140.66
2022-12-03T20:11:30.407Z,102145.63
2022-12-03T20:14:00.289Z,102138.59
2022-12-03T20:16:27.984Z,102143.91
2022-12-03T20:19:00.539Z,102143.91
2022-12-03T20:21:29.471Z,102142.34
2022-12-03T20:23:56.166Z,102137.03
2022-12-03T20:26:23.010Z,102131.25
2022-12-03T20:28:49.984Z,102136.94
2022-12-03T20:31:20.711Z,102139.25
2022-12-03T20:33:50.009Z,102130.34
2022-12-03T20:36:19.014Z,102142.69
2022-12-03T20:38:45.523Z,102132.75
2022-12-03T20:41:18.632Z,102132.91
2022-12-03T20:43:45.632Z,102128.47
2022-12-03T20:46:27.090Z,102132.25
2022-12-03T20:48:54.295Z,102129.84
2022-12-03T20:51:23.164Z,102125.53
2022-12-03T20:53:50.306Z,102115.78
2022-12-03T20:56:20.172Z,102120.56
2022-12-03T20:58:48.718Z,102125.38
2022-12-03T21:01:17.626Z,102120.22
2022-12-03T21:03:45.144Z,102123.13
2022-12-03T21:06:13.507Z,102117.97
2022-12-03T21:08:42.358Z,102121.56
2022-12-03T21:11:14.833Z,102127.91
2022-12-03T21:13:43.659Z,102117.44
2022-12-03T21:16:12.872Z,102110.94
2022-12-03T21:18:41.347Z,102111.97
2022-12-03T21:21:10.431Z,102105.47
2022-12-03T21:23:37.429Z,102101.00
2022-12-03T21:26:10.685Z,102100.16
2022-12-03T21:28:39.709Z,102099.31
2022-12-03T21:31:13.678Z,102097.56
2022-12-03T21:33:40.598Z,102093.13
2022-12-03T21:36:08.784Z,102097.91
2022-12-03T21:38:36.246Z,102092.75
2022-12-03T21:41:04.495Z,102093.47
2022-12-03T21:43:32.234Z,102096.53
2022-12-03T21:45:58.947Z,102093.09
2022-12-03T21:48:25.801Z,102086.94
2022-12-03T21:51:00.749Z,102083.69
2022-12-03T21:53:28.227Z,102082.81
2022-12-03T21:55:54.826Z,102077.84
2022-12-03T21:58:21.699Z,102084.19
2022-12-03T22:00:48.378Z,102099.59
2022-12-03T22:03:15.033Z,102091.53
2022-12-03T22:05:41.766Z,102087.97
2022-12-03T22:08:09.474Z,102091.69
2022-12-03T22:10:36.487Z,102085.88
2022-12-03T22:13:03.083Z,102085.00
2022-12-03T22:15:30.001Z,102093.41
2022-12-03T22:17:56.594Z,102092.69
2022-12-03T22:20:23.450Z,102092.88
2022-12-03T22:22:50.120Z,102102.97
2022-12-03T22:25:16.925Z,102093.03
2022-12-03T22:27:43.561Z,102090.47
2022-12-03T22:30:10.347Z,102082.56
2022-12-03T22:32:37.001Z,102081.75
2022-12-03T22:35:03.786Z,102081.75
2022-12-03T22:37:30.437Z,102073.84
2022-12-03T22:39:57.309Z,102077.78
2022-12-03T22:42:24.208Z,102070.41
2022-12-03T22:44:50.913Z,102074.34
2022-12-03T22:47:17.530Z,102074.34
2022-12-03T22:49:44.187Z,102077.25
2022-12-03T22:52:10.788Z,102085.13
2022-12-03T22:54:37.389Z,102077.25
2022-12-03T22:57:03.909Z,102078.28
2022-12-03T22:59:30.696Z,102084.09
2022-12-03T23:01:57.266Z,102083.06
2022-12-03T23:04:23.848Z,102087.16
2022-12-03T23:06:50.458Z,102078.97
2022-12-03T23:09:17.071Z,102085.44
2022-12-03T23:11:45.418Z,102089.19
2022-12-03T23:14:12.801Z,102087.50
2022-12-03T23:16:40.343Z,102091.06
2022-12-03T23:19:07.552Z,102091.56
2022-12-03T23:21:35.538Z,102091.91
2022-12-03T23:24:04.565Z,102091.72
2022-12-03T23:26:34.575Z,102091.91
2022-12-03T23:29:01.166Z,102091.22
2022-12-03T23:31:30.455Z,102092.22
2022-12-03T23:33:58.536Z,102092.53
2022-12-03T23:36:27.006Z,102086.75
2022-12-03T23:38:54.671Z,102091.72
2022-12-03T23:41:23.468Z,102086.25
2022-12-03T23:43:50.376Z,102089.13
2022-12-03T23:46:25.972Z,102089.47
2022-12-03T23:48:52.617Z,102087.41
2022-12-03T23:51:22.264Z,102083.13
2022-12-03T23:53:49.181Z,102089.75
2022-12-03T23:56:19.458Z,102089.47
2022-12-03T23:58:46.678Z,102094.38
